Rudgwick, United Kingdom
Current Conditions -  °F | °C
As of 10:50 PM on Thursday 20 Nov 2014 (Local Time) from EGKK Reporting Station
Haze Haze  
Wind Chill: 40°   Ceiling: 1000
Heat Index: 45°   Visibility: 2.8mi
Dew Point: 45°   Wind: 9mph
Humidity: 100%   Direction: 90°E
Pressure: 30.21"   Gusts: NA
Location:  51.09°N, 0.45°W
Report Text: EGKK 202250Z 09008KT 4500 BR BKN010 07/07 Q1023
Loading
Personal Weather Stations






























Interactive Weather Map New forecast layout! Learn more

10-Day Weather Forecast

Advertisements
Track Severe Weather on mobile